sensor_id;sensor_type;location;lat;lon;timestamp;temperature;humidity
54946;DHT22;40846;44.788;20.486;2024-03-02T00:02:01;256.50;2252.80
54946;DHT22;40846;44.788;20.486;2024-03-02T00:28:59;256.60;2252.80
54946;DHT22;40846;44.788;20.486;2024-03-02T00:31:25;205.70;2252.80
54946;DHT22;40846;44.788;20.486;2024-03-02T00:33:51;256.20;2252.80
54946;DHT22;40846;44.788;20.486;2024-03-02T00:36:25;256.20;2252.80
54946;DHT22;40846;44.788;20.486;2024-03-02T00:38:54;256.20;2252.80
54946;DHT22;40846;44.788;20.486;2024-03-02T00:41:28;256.10;2252.80
54946;DHT22;40846;44.788;20.486;2024-03-02T00:44:00;256.30;2252.80
54946;DHT22;40846;44.788;20.486;2024-03-02T00:46:33;256.30;2252.80
54946;DHT22;40846;44.788;20.486;2024-03-02T00:49:01;256.20;2252.80
54946;DHT22;40846;44.788;20.486;2024-03-02T00:51:29;256.20;2252.80
54946;DHT22;40846;44.788;20.486;2024-03-02T01:01:17;256.50;2252.80
54946;DHT22;40846;44.788;20.486;2024-03-02T01:28:09;256.60;2252.80
54946;DHT22;40846;44.788;20.486;2024-03-02T01:30:34;256.30;2252.80
54946;DHT22;40846;44.788;20.486;2024-03-02T04:11:53;231.30;2252.80
54946;DHT22;40846;44.788;20.486;2024-03-02T04:14:19;231.10;2252.80
54946;DHT22;40846;44.788;20.486;2024-03-02T04:16:45;230.90;2252.80
54946;DHT22;40846;44.788;20.486;2024-03-02T05:44:45;230.60;2252.80
54946;DHT22;40846;44.788;20.486;2024-03-02T05:47:10;230.60;2252.80
54946;DHT22;40846;44.788;20.486;2024-03-02T05:49:36;230.50;2252.80
54946;DHT22;40846;44.788;20.486;2024-03-02T05:52:02;230.50;2252.80
54946;DHT22;40846;44.788;20.486;2024-03-02T05:54:28;205.70;2252.80
54946;DHT22;40846;44.788;20.486;2024-03-02T05:56:54;205.70;2252.80
54946;DHT22;40846;44.788;20.486;2024-03-02T05:59:20;205.70;2252.80
54946;DHT22;40846;44.788;20.486;2024-03-02T06:01:46;205.70;2252.80
54946;DHT22;40846;44.788;20.486;2024-03-02T06:04:13;230.40;2252.80
54946;DHT22;40846;44.788;20.486;2024-03-02T06:06:39;230.40;2252.80
54946;DHT22;40846;44.788;20.486;2024-03-02T06:09:06;230.50;2252.80
54946;DHT22;40846;44.788;20.486;2024-03-02T06:11:38;230.50;2252.80
54946;DHT22;40846;44.788;20.486;2024-03-02T06:14:05;230.50;2252.80
54946;DHT22;40846;44.788;20.486;2024-03-02T06:16:32;230.50;2252.80
54946;DHT22;40846;44.788;20.486;2024-03-02T06:18:58;230.50;2252.80
54946;DHT22;40846;44.788;20.486;2024-03-02T06:21:24;230.50;2252.80
54946;DHT22;40846;44.788;20.486;2024-03-02T06:23:50;230.50;2252.80
54946;DHT22;40846;44.788;20.486;2024-03-02T06:26:16;230.60;2252.80
54946;DHT22;40846;44.788;20.486;2024-03-02T06:28:42;230.50;2252.80
54946;DHT22;40846;44.788;20.486;2024-03-02T06:31:08;230.50;2252.80
54946;DHT22;40846;44.788;20.486;2024-03-02T06:33:34;230.60;2252.80
54946;DHT22;40846;44.788;20.486;2024-03-02T06:38:26;230.80;2252.80
54946;DHT22;40846;44.788;20.486;2024-03-02T06:40:52;230.60;2252.80
54946;DHT22;40846;44.788;20.486;2024-03-02T06:43:18;230.60;2252.80
54946;DHT22;40846;44.788;20.486;2024-03-02T06:45:44;230.60;2252.80
54946;DHT22;40846;44.788;20.486;2024-03-02T06:48:10;230.60;2252.80
54946;DHT22;40846;44.788;20.486;2024-03-02T06:50:35;230.60;2252.80
54946;DHT22;40846;44.788;20.486;2024-03-02T06:53:01;230.70;2252.80
54946;DHT22;40846;44.788;20.486;2024-03-02T06:55:29;230.80;2252.80
54946;DHT22;40846;44.788;20.486;2024-03-02T06:57:55;230.80;2252.80
54946;DHT22;40846;44.788;20.486;2024-03-02T07:00:21;230.80;2252.80
54946;DHT22;40846;44.788;20.486;2024-03-02T07:02:47;230.70;2252.80
54946;DHT22;40846;44.788;20.486;2024-03-02T07:05:12;230.80;2252.80
54946;DHT22;40846;44.788;20.486;2024-03-02T07:07:38;230.70;2252.80
54946;DHT22;40846;44.788;20.486;2024-03-02T07:10:05;230.80;2252.80
54946;DHT22;40846;44.788;20.486;2024-03-02T07:12:31;230.90;2252.80
54946;DHT22;40846;44.788;20.486;2024-03-02T07:14:57;230.70;2252.80
54946;DHT22;40846;44.788;20.486;2024-03-02T07:17:30;230.80;2252.80
54946;DHT22;40846;44.788;20.486;2024-03-02T07:24:49;231.20;2252.80
54946;DHT22;40846;44.788;20.486;2024-03-02T07:27:16;231.00;2252.80
54946;DHT22;40846;44.788;20.486;2024-03-02T07:29:42;231.00;2252.80
54946;DHT22;40846;44.788;20.486;2024-03-02T07:32:09;231.10;2252.80
54946;DHT22;40846;44.788;20.486;2024-03-02T07:34:35;231.10;2252.80
54946;DHT22;40846;44.788;20.486;2024-03-02T07:37:00;231.10;2252.80
54946;DHT22;40846;44.788;20.486;2024-03-02T07:39:27;231.20;2252.80
54946;DHT22;40846;44.788;20.486;2024-03-02T07:41:53;256.20;2252.80
54946;DHT22;40846;44.788;20.486;2024-03-02T07:44:19;256.10;2252.80
54946;DHT22;40846;44.788;20.486;2024-03-02T07:46:46;256.40;2252.80
54946;DHT22;40846;44.788;20.486;2024-03-02T07:49:13;256.30;2252.80
54946;DHT22;40846;44.788;20.486;2024-03-02T07:51:39;256.40;2252.80
54946;DHT22;40846;44.788;20.486;2024-03-02T08:01:27;282.30;2278.40
54946;DHT22;40846;44.788;20.486;2024-03-02T08:03:55;282.20;2278.40
54946;DHT22;40846;44.788;20.486;2024-03-02T08:06:22;282.50;2278.40
54946;DHT22;40846;44.788;20.486;2024-03-02T08:08:48;282.20;2278.40
54946;DHT22;40846;44.788;20.486;2024-03-02T08:28:19;308.00;2304.00
54946;DHT22;40846;44.788;20.486;2024-03-02T08:30:45;307.80;2304.00
54946;DHT22;40846;44.788;20.486;2024-03-02T08:33:11;307.90;2304.00
54946;DHT22;40846;44.788;20.486;2024-03-02T08:35:37;307.60;2304.00
54946;DHT22;40846;44.788;20.486;2024-03-02T08:38:03;307.70;2304.00
54946;DHT22;40846;44.788;20.486;2024-03-02T08:40:30;333.10;2329.60
54946;DHT22;40846;44.788;20.486;2024-03-02T08:42:56;333.20;2329.60
54946;DHT22;40846;44.788;20.486;2024-03-02T08:45:21;333.20;2329.60
54946;DHT22;40846;44.788;20.486;2024-03-02T08:47:48;333.70;2329.60
54946;DHT22;40846;44.788;20.486;2024-03-02T08:50:13;333.20;2329.60
54946;DHT22;40846;44.788;20.486;2024-03-02T08:52:39;332.90;2329.60
54946;DHT22;40846;44.788;20.486;2024-03-02T08:55:06;307.90;2304.00
54946;DHT22;40846;44.788;20.486;2024-03-02T08:59:59;332.90;2329.60
54946;DHT22;40846;44.788;20.486;2024-03-02T09:02:25;332.90;2329.60
54946;DHT22;40846;44.788;20.486;2024-03-02T09:04:51;333.00;2329.60
54946;DHT22;40846;44.788;20.486;2024-03-02T09:07:17;308.10;2304.00
54946;DHT22;40846;44.788;20.486;2024-03-02T09:09:43;308.10;2304.00
54946;DHT22;40846;44.788;20.486;2024-03-02T09:12:09;307.90;2304.00
54946;DHT22;40846;44.788;20.486;2024-03-02T09:14:36;308.10;2304.00
54946;DHT22;40846;44.788;20.486;2024-03-02T09:17:03;307.90;2304.00
54946;DHT22;40846;44.788;20.486;2024-03-02T09:19:29;307.90;2304.00
54946;DHT22;40846;44.788;20.486;2024-03-02T09:21:55;307.80;2304.00
54946;DHT22;40846;44.788;20.486;2024-03-02T09:24:21;307.90;2304.00
54946;DHT22;40846;44.788;20.486;2024-03-02T09:26:47;308.00;2304.00
54946;DHT22;40846;44.788;20.486;2024-03-02T09:29:13;308.10;2304.00
54946;DHT22;40846;44.788;20.486;2024-03-02T09:31:43;332.80;2329.60
54946;DHT22;40846;44.788;20.486;2024-03-02T09:34:09;332.80;2329.60
54946;DHT22;40846;44.788;20.486;2024-03-02T09:36:37;308.10;2304.00
54946;DHT22;40846;44.788;20.486;2024-03-02T09:39:08;308.10;2304.00
54946;DHT22;40846;44.788;20.486;2024-03-02T09:41:36;333.10;2329.60
54946;DHT22;40846;44.788;20.486;2024-03-02T09:48:55;358.50;2329.60
54946;DHT22;40846;44.788;20.486;2024-03-02T10:01:08;358.60;2329.60
54946;DHT22;40846;44.788;20.486;2024-03-02T10:03:37;358.60;2329.60
54946;DHT22;40846;44.788;20.486;2024-03-02T10:16:17;435.80;2355.20
54946;DHT22;40846;44.788;20.486;2024-03-02T10:23:44;512.40;2022.40
54946;DHT22;40846;44.788;20.486;2024-03-02T10:26:19;487.20;1971.20
54946;DHT22;40846;44.788;20.486;2024-03-02T10:28:47;461.70;2073.60
54946;DHT22;40846;44.788;20.486;2024-03-02T18:07:38;282.40;2278.40
54946;DHT22;40846;44.788;20.486;2024-03-02T18:17:23;282.30;2278.40
54946;DHT22;40846;44.788;20.486;2024-03-02T18:37:01;282.00;2278.40
54946;DHT22;40846;44.788;20.486;2024-03-02T18:39:27;281.70;2278.40
54946;DHT22;40846;44.788;20.486;2024-03-02T18:41:53;256.90;2252.80
54946;DHT22;40846;44.788;20.486;2024-03-02T18:54:04;281.80;2278.40
54946;DHT22;40846;44.788;20.486;2024-03-02T18:56:30;256.80;2252.80
54946;DHT22;40846;44.788;20.486;2024-03-02T18:58:56;256.60;2252.80
54946;DHT22;40846;44.788;20.486;2024-03-02T19:01:22;256.70;2252.80
54946;DHT22;40846;44.788;20.486;2024-03-02T19:21:05;256.30;2252.80
54946;DHT22;40846;44.788;20.486;2024-03-02T19:23:31;256.10;2252.80
54946;DHT22;40846;44.788;20.486;2024-03-02T19:25:57;231.30;2252.80
54946;DHT22;40846;44.788;20.486;2024-03-02T19:40:41;256.00;2252.80
54946;DHT22;40846;44.788;20.486;2024-03-02T20:34:36;230.80;2252.80
54946;DHT22;40846;44.788;20.486;2024-03-02T20:37:02;230.60;2252.80
54946;DHT22;40846;44.788;20.486;2024-03-02T20:39:29;230.50;2252.80
54946;DHT22;40846;44.788;20.486;2024-03-02T20:42:01;230.50;2252.80
54946;DHT22;40846;44.788;20.486;2024-03-02T20:44:28;230.40;2252.80
54946;DHT22;40846;44.788;20.486;2024-03-02T20:46:54;230.40;2252.80
54946;DHT22;40846;44.788;20.486;2024-03-02T20:49:20;205.70;2252.80
54946;DHT22;40846;44.788;20.486;2024-03-02T20:51:46;205.60;2252.80
54946;DHT22;40846;44.788;20.486;2024-03-02T20:54:12;205.60;2252.80
54946;DHT22;40846;44.788;20.486;2024-03-02T20:56:38;205.60;2252.80
54946;DHT22;40846;44.788;20.486;2024-03-02T20:59:10;205.60;2252.80
54946;DHT22;40846;44.788;20.486;2024-03-02T21:01:36;205.60;2252.80
54946;DHT22;40846;44.788;20.486;2024-03-02T21:04:03;205.50;2252.80
54946;DHT22;40846;44.788;20.486;2024-03-02T21:06:29;205.70;2252.80
54946;DHT22;40846;44.788;20.486;2024-03-02T21:08:55;205.70;2252.80
54946;DHT22;40846;44.788;20.486;2024-03-02T21:11:21;205.70;2252.80
54946;DHT22;40846;44.788;20.486;2024-03-02T21:13:48;205.70;2252.80
54946;DHT22;40846;44.788;20.486;2024-03-02T21:16:15;205.70;2252.80
54946;DHT22;40846;44.788;20.486;2024-03-02T21:18:42;256.00;2252.80
54946;DHT22;40846;44.788;20.486;2024-03-02T21:21:08;205.70;2252.80
54946;DHT22;40846;44.788;20.486;2024-03-02T21:23:35;205.70;2252.80
54946;DHT22;40846;44.788;20.486;2024-03-02T21:26:01;230.40;2252.80
54946;DHT22;40846;44.788;20.486;2024-03-02T21:28:29;230.40;2252.80
54946;DHT22;40846;44.788;20.486;2024-03-02T21:30:55;205.70;2252.80
54946;DHT22;40846;44.788;20.486;2024-03-02T21:33:21;205.60;2252.80
54946;DHT22;40846;44.788;20.486;2024-03-02T21:35:46;205.70;2252.80
54946;DHT22;40846;44.788;20.486;2024-03-02T21:38:12;230.40;2252.80
54946;DHT22;40846;44.788;20.486;2024-03-02T21:40:41;230.40;2252.80
54946;DHT22;40846;44.788;20.486;2024-03-02T21:43:07;230.40;2252.80
54946;DHT22;40846;44.788;20.486;2024-03-02T21:45:33;230.40;2252.80
54946;DHT22;40846;44.788;20.486;2024-03-02T21:47:58;230.40;2252.80
54946;DHT22;40846;44.788;20.486;2024-03-02T21:50:24;230.50;2252.80
54946;DHT22;40846;44.788;20.486;2024-03-02T21:52:54;230.50;2252.80
54946;DHT22;40846;44.788;20.486;2024-03-02T21:55:21;230.40;2252.80
54946;DHT22;40846;44.788;20.486;2024-03-02T22:10:06;230.40;2252.80
54946;DHT22;40846;44.788;20.486;2024-03-02T22:12:32;205.70;2252.80
54946;DHT22;40846;44.788;20.486;2024-03-02T22:14:58;205.70;2252.80
54946;DHT22;40846;44.788;20.486;2024-03-02T22:17:24;205.60;2252.80
54946;DHT22;40846;44.788;20.486;2024-03-02T22:19:53;205.60;2252.80
54946;DHT22;40846;44.788;20.486;2024-03-02T22:22:52;205.70;2252.80
54946;DHT22;40846;44.788;20.486;2024-03-02T22:25:18;205.70;2252.80
54946;DHT22;40846;44.788;20.486;2024-03-02T22:27:43;205.60;2252.80
54946;DHT22;40846;44.788;20.486;2024-03-02T22:30:10;205.70;2252.80
54946;DHT22;40846;44.788;20.486;2024-03-02T22:32:35;205.70;2252.80
54946;DHT22;40846;44.788;20.486;2024-03-02T22:35:01;230.40;2252.80
54946;DHT22;40846;44.788;20.486;2024-03-02T22:37:27;205.70;2252.80
54946;DHT22;40846;44.788;20.486;2024-03-02T22:39:53;205.60;2252.80
54946;DHT22;40846;44.788;20.486;2024-03-02T22:42:18;205.70;2252.80
54946;DHT22;40846;44.788;20.486;2024-03-02T22:44:44;205.70;2252.80
54946;DHT22;40846;44.788;20.486;2024-03-02T22:47:10;205.70;2252.80
54946;DHT22;40846;44.788;20.486;2024-03-02T22:49:38;230.40;2252.80
54946;DHT22;40846;44.788;20.486;2024-03-02T22:52:04;256.00;2252.80
54946;DHT22;40846;44.788;20.486;2024-03-02T22:54:30;205.70;2252.80
54946;DHT22;40846;44.788;20.486;2024-03-02T22:56:56;205.70;2252.80
54946;DHT22;40846;44.788;20.486;2024-03-02T22:59:23;205.60;2252.80
54946;DHT22;40846;44.788;20.486;2024-03-02T23:01:48;205.70;2252.80
54946;DHT22;40846;44.788;20.486;2024-03-02T23:04:14;205.60;2252.80
54946;DHT22;40846;44.788;20.486;2024-03-02T23:06:40;205.60;2252.80
54946;DHT22;40846;44.788;20.486;2024-03-02T23:09:05;205.60;2252.80
54946;DHT22;40846;44.788;20.486;2024-03-02T23:11:33;205.60;2252.80
54946;DHT22;40846;44.788;20.486;2024-03-02T23:13:59;230.70;2252.80
54946;DHT22;40846;44.788;20.486;2024-03-02T23:16:25;230.40;2252.80
54946;DHT22;40846;44.788;20.486;2024-03-02T23:18:52;205.70;2252.80
54946;DHT22;40846;44.788;20.486;2024-03-02T23:21:18;205.60;2252.80
54946;DHT22;40846;44.788;20.486;2024-03-02T23:23:43;205.60;2252.80
54946;DHT22;40846;44.788;20.486;2024-03-02T23:26:09;205.50;2252.80
54946;DHT22;40846;44.788;20.486;2024-03-02T23:28:35;205.60;2252.80
54946;DHT22;40846;44.788;20.486;2024-03-02T23:31:01;205.70;2252.80
54946;DHT22;40846;44.788;20.486;2024-03-02T23:33:27;205.60;2252.80
54946;DHT22;40846;44.788;20.486;2024-03-02T23:35:53;205.40;2252.80
54946;DHT22;40846;44.788;20.486;2024-03-02T23:38:21;205.60;2252.80
54946;DHT22;40846;44.788;20.486;2024-03-02T23:40:47;205.60;2252.80
54946;DHT22;40846;44.788;20.486;2024-03-02T23:43:13;205.50;2252.80
54946;DHT22;40846;44.788;20.486;2024-03-02T23:45:39;205.70;2252.80
54946;DHT22;40846;44.788;20.486;2024-03-02T23:48:07;205.60;2252.80
54946;DHT22;40846;44.788;20.486;2024-03-02T23:50:34;205.60;2252.80
54946;DHT22;40846;44.788;20.486;2024-03-02T23:53:00;205.60;2252.80
54946;DHT22;40846;44.788;20.486;2024-03-02T23:55:25;205.60;2252.80
54946;DHT22;40846;44.788;20.486;2024-03-02T23:57:53;205.60;2252.80
